sensor_id;sensor_type;location;lat;lon;timestamp;P1;durP1;ratioP1;P2;durP2;ratioP2
18526;SDS011;9393;42.158;24.748;2022-12-13T00:02:18;1.37;;;0.83;;
18526;SDS011;9393;42.158;24.748;2022-12-13T00:05:22;2.60;;;1.00;;
18526;SDS011;9393;42.158;24.748;2022-12-13T00:08:25;2.10;;;1.43;;
18526;SDS011;9393;42.158;24.748;2022-12-13T00:11:31;1.40;;;1.00;;
18526;SDS011;9393;42.158;24.748;2022-12-13T00:14:35;1.93;;;1.30;;
18526;SDS011;9393;42.158;24.748;2022-12-13T00:17:39;1.90;;;1.27;;
18526;SDS011;9393;42.158;24.748;2022-12-13T00:20:43;1.00;;;0.90;;
18526;SDS011;9393;42.158;24.748;2022-12-13T00:23:47;1.23;;;1.10;;
18526;SDS011;9393;42.158;24.748;2022-12-13T00:26:54;1.37;;;1.20;;
18526;SDS011;9393;42.158;24.748;2022-12-13T00:29:58;1.60;;;1.43;;
18526;SDS011;9393;42.158;24.748;2022-12-13T00:33:02;2.20;;;1.73;;
18526;SDS011;9393;42.158;24.748;2022-12-13T00:36:07;2.50;;;1.40;;
18526;SDS011;9393;42.158;24.748;2022-12-13T00:39:12;2.57;;;1.30;;
18526;SDS011;9393;42.158;24.748;2022-12-13T00:42:18;2.33;;;1.67;;
18526;SDS011;9393;42.158;24.748;2022-12-13T00:45:22;1.70;;;1.50;;
18526;SDS011;9393;42.158;24.748;2022-12-13T00:48:26;3.13;;;2.20;;
18526;SDS011;9393;42.158;24.748;2022-12-13T00:51:31;2.90;;;1.83;;
18526;SDS011;9393;42.158;24.748;2022-12-13T00:54:36;2.40;;;1.80;;
18526;SDS011;9393;42.158;24.748;2022-12-13T00:57:41;2.63;;;1.90;;
18526;SDS011;9393;42.158;24.748;2022-12-13T01:00:45;2.33;;;1.80;;
18526;SDS011;9393;42.158;24.748;2022-12-13T01:03:49;2.50;;;1.40;;
18526;SDS011;9393;42.158;24.748;2022-12-13T01:06:53;1.80;;;1.60;;
18526;SDS011;9393;42.158;24.748;2022-12-13T01:09:57;1.40;;;1.20;;
18526;SDS011;9393;42.158;24.748;2022-12-13T01:13:03;2.40;;;1.40;;
18526;SDS011;9393;42.158;24.748;2022-12-13T01:16:07;2.30;;;1.90;;
18526;SDS011;9393;42.158;24.748;2022-12-13T01:19:12;2.50;;;1.80;;
18526;SDS011;9393;42.158;24.748;2022-12-13T01:22:17;2.10;;;1.70;;
18526;SDS011;9393;42.158;24.748;2022-12-13T01:25:21;1.80;;;1.43;;
18526;SDS011;9393;42.158;24.748;2022-12-13T01:28:27;2.17;;;1.60;;
18526;SDS011;9393;42.158;24.748;2022-12-13T01:31:31;2.10;;;1.90;;
18526;SDS011;9393;42.158;24.748;2022-12-13T01:34:35;2.17;;;1.70;;
18526;SDS011;9393;42.158;24.748;2022-12-13T01:37:39;1.83;;;1.50;;
18526;SDS011;9393;42.158;24.748;2022-12-13T01:40:44;1.40;;;1.30;;
18526;SDS011;9393;42.158;24.748;2022-12-13T01:43:52;3.20;;;1.50;;
18526;SDS011;9393;42.158;24.748;2022-12-13T01:46:58;3.60;;;2.07;;
18526;SDS011;9393;42.158;24.748;2022-12-13T01:50:04;2.60;;;1.87;;
18526;SDS011;9393;42.158;24.748;2022-12-13T01:53:12;4.87;;;2.50;;
18526;SDS011;9393;42.158;24.748;2022-12-13T01:56:20;2.57;;;2.03;;
18526;SDS011;9393;42.158;24.748;2022-12-13T01:59:29;3.13;;;2.10;;
18526;SDS011;9393;42.158;24.748;2022-12-13T02:02:33;2.43;;;1.93;;
18526;SDS011;9393;42.158;24.748;2022-12-13T02:05:39;3.73;;;2.80;;
18526;SDS011;9393;42.158;24.748;2022-12-13T02:08:46;2.50;;;2.23;;
18526;SDS011;9393;42.158;24.748;2022-12-13T02:11:49;4.10;;;2.50;;
18526;SDS011;9393;42.158;24.748;2022-12-13T02:14:55;2.03;;;1.70;;
18526;SDS011;9393;42.158;24.748;2022-12-13T02:18:07;2.60;;;2.10;;
18526;SDS011;9393;42.158;24.748;2022-12-13T02:21:21;3.53;;;2.30;;
18526;SDS011;9393;42.158;24.748;2022-12-13T02:24:38;7.17;;;2.67;;
18526;SDS011;9393;42.158;24.748;2022-12-13T02:28:03;2.33;;;1.80;;
18526;SDS011;9393;42.158;24.748;2022-12-13T02:31:35;2.97;;;2.10;;
18526;SDS011;9393;42.158;24.748;2022-12-13T02:34:50;2.90;;;2.60;;
18526;SDS011;9393;42.158;24.748;2022-12-13T02:38:00;3.03;;;2.33;;
18526;SDS011;9393;42.158;24.748;2022-12-13T02:41:13;3.27;;;2.20;;
18526;SDS011;9393;42.158;24.748;2022-12-13T02:44:21;2.60;;;2.13;;
18526;SDS011;9393;42.158;24.748;2022-12-13T02:47:29;4.17;;;2.63;;
18526;SDS011;9393;42.158;24.748;2022-12-13T02:50:35;3.53;;;2.87;;
18526;SDS011;9393;42.158;24.748;2022-12-13T02:53:41;4.13;;;3.27;;
18526;SDS011;9393;42.158;24.748;2022-12-13T02:56:52;3.23;;;2.83;;
18526;SDS011;9393;42.158;24.748;2022-12-13T02:59:57;3.40;;;2.97;;
18526;SDS011;9393;42.158;24.748;2022-12-13T03:03:09;4.30;;;2.80;;
18526;SDS011;9393;42.158;24.748;2022-12-13T03:06:24;3.53;;;2.80;;
18526;SDS011;9393;42.158;24.748;2022-12-13T03:09:47;2.60;;;2.10;;
18526;SDS011;9393;42.158;24.748;2022-12-13T03:13:00;4.07;;;2.90;;
18526;SDS011;9393;42.158;24.748;2022-12-13T03:16:30;3.43;;;2.93;;
18526;SDS011;9393;42.158;24.748;2022-12-13T03:19:40;2.30;;;1.87;;
18526;SDS011;9393;42.158;24.748;2022-12-13T03:22:44;3.20;;;2.67;;
18526;SDS011;9393;42.158;24.748;2022-12-13T03:25:49;4.33;;;2.70;;
18526;SDS011;9393;42.158;24.748;2022-12-13T03:28:55;3.40;;;2.67;;
18526;SDS011;9393;42.158;24.748;2022-12-13T03:32:02;3.63;;;2.30;;
18526;SDS011;9393;42.158;24.748;2022-12-13T03:35:08;3.37;;;2.53;;
18526;SDS011;9393;42.158;24.748;2022-12-13T03:38:23;3.50;;;2.60;;
18526;SDS011;9393;42.158;24.748;2022-12-13T03:41:27;2.97;;;2.57;;
18526;SDS011;9393;42.158;24.748;2022-12-13T03:44:33;3.17;;;2.50;;
18526;SDS011;9393;42.158;24.748;2022-12-13T03:47:37;3.13;;;2.43;;
18526;SDS011;9393;42.158;24.748;2022-12-13T03:50:42;3.67;;;2.50;;
18526;SDS011;9393;42.158;24.748;2022-12-13T03:53:46;4.40;;;2.50;;
18526;SDS011;9393;42.158;24.748;2022-12-13T03:56:50;2.90;;;2.60;;
18526;SDS011;9393;42.158;24.748;2022-12-13T03:59:54;3.40;;;2.50;;
18526;SDS011;9393;42.158;24.748;2022-12-13T04:02:58;3.73;;;2.77;;
18526;SDS011;9393;42.158;24.748;2022-12-13T04:06:04;3.67;;;2.90;;
18526;SDS011;9393;42.158;24.748;2022-12-13T04:09:08;3.77;;;2.80;;
18526;SDS011;9393;42.158;24.748;2022-12-13T04:12:12;3.33;;;2.83;;
18526;SDS011;9393;42.158;24.748;2022-12-13T04:15:34;4.33;;;2.60;;
18526;SDS011;9393;42.158;24.748;2022-12-13T04:18:38;3.70;;;2.60;;
18526;SDS011;9393;42.158;24.748;2022-12-13T04:21:43;4.40;;;2.70;;
18526;SDS011;9393;42.158;24.748;2022-12-13T04:24:47;2.60;;;2.40;;
18526;SDS011;9393;42.158;24.748;2022-12-13T04:27:51;3.93;;;2.60;;
18526;SDS011;9393;42.158;24.748;2022-12-13T04:30:55;3.30;;;2.03;;
18526;SDS011;9393;42.158;24.748;2022-12-13T04:33:59;4.20;;;2.90;;
18526;SDS011;9393;42.158;24.748;2022-12-13T04:37:04;4.77;;;2.80;;
18526;SDS011;9393;42.158;24.748;2022-12-13T04:40:09;4.67;;;3.10;;
18526;SDS011;9393;42.158;24.748;2022-12-13T04:43:22;4.13;;;2.43;;
18526;SDS011;9393;42.158;24.748;2022-12-13T04:46:26;3.83;;;3.20;;
18526;SDS011;9393;42.158;24.748;2022-12-13T04:49:30;5.53;;;3.00;;
18526;SDS011;9393;42.158;24.748;2022-12-13T04:52:36;6.23;;;3.37;;
18526;SDS011;9393;42.158;24.748;2022-12-13T04:55:40;4.57;;;3.23;;
18526;SDS011;9393;42.158;24.748;2022-12-13T04:58:44;6.70;;;3.70;;
18526;SDS011;9393;42.158;24.748;2022-12-13T05:01:48;5.93;;;3.63;;
18526;SDS011;9393;42.158;24.748;2022-12-13T05:04:52;5.20;;;3.60;;
18526;SDS011;9393;42.158;24.748;2022-12-13T05:07:58;5.80;;;3.77;;
18526;SDS011;9393;42.158;24.748;2022-12-13T05:11:02;6.50;;;3.40;;
18526;SDS011;9393;42.158;24.748;2022-12-13T05:14:06;4.27;;;3.50;;
18526;SDS011;9393;42.158;24.748;2022-12-13T05:17:10;4.30;;;3.20;;
18526;SDS011;9393;42.158;24.748;2022-12-13T05:20:14;5.17;;;3.47;;
18526;SDS011;9393;42.158;24.748;2022-12-13T05:23:20;5.83;;;3.73;;
18526;SDS011;9393;42.158;24.748;2022-12-13T05:26:25;5.33;;;2.97;;
18526;SDS011;9393;42.158;24.748;2022-12-13T05:29:29;6.37;;;3.67;;
18526;SDS011;9393;42.158;24.748;2022-12-13T05:32:33;9.10;;;4.10;;
18526;SDS011;9393;42.158;24.748;2022-12-13T05:35:43;6.10;;;3.60;;
18526;SDS011;9393;42.158;24.748;2022-12-13T05:38:48;6.37;;;3.40;;
18526;SDS011;9393;42.158;24.748;2022-12-13T05:41:52;5.07;;;3.30;;
18526;SDS011;9393;42.158;24.748;2022-12-13T05:45:03;5.03;;;3.53;;
18526;SDS011;9393;42.158;24.748;2022-12-13T05:48:08;5.53;;;3.43;;
18526;SDS011;9393;42.158;24.748;2022-12-13T05:51:12;6.97;;;4.30;;
18526;SDS011;9393;42.158;24.748;2022-12-13T05:54:17;6.77;;;4.40;;
18526;SDS011;9393;42.158;24.748;2022-12-13T05:57:21;5.37;;;4.17;;
18526;SDS011;9393;42.158;24.748;2022-12-13T06:00:25;7.00;;;3.50;;
18526;SDS011;9393;42.158;24.748;2022-12-13T06:03:31;6.77;;;4.17;;
18526;SDS011;9393;42.158;24.748;2022-12-13T06:06:35;5.50;;;4.13;;
18526;SDS011;9393;42.158;24.748;2022-12-13T06:09:41;6.07;;;4.07;;
18526;SDS011;9393;42.158;24.748;2022-12-13T06:12:45;8.43;;;4.97;;
18526;SDS011;9393;42.158;24.748;2022-12-13T06:15:49;9.43;;;4.50;;
18526;SDS011;9393;42.158;24.748;2022-12-13T06:19:02;9.17;;;4.77;;
18526;SDS011;9393;42.158;24.748;2022-12-13T06:22:06;6.97;;;3.87;;
18526;SDS011;9393;42.158;24.748;2022-12-13T06:25:11;7.23;;;4.10;;
18526;SDS011;9393;42.158;24.748;2022-12-13T06:28:32;10.07;;;4.87;;
18526;SDS011;9393;42.158;24.748;2022-12-13T06:31:36;7.47;;;4.47;;
18526;SDS011;9393;42.158;24.748;2022-12-13T06:34:40;5.67;;;3.80;;
18526;SDS011;9393;42.158;24.748;2022-12-13T06:37:44;7.30;;;4.00;;
18526;SDS011;9393;42.158;24.748;2022-12-13T06:40:49;5.57;;;4.23;;
18526;SDS011;9393;42.158;24.748;2022-12-13T06:43:53;8.17;;;4.93;;
18526;SDS011;9393;42.158;24.748;2022-12-13T06:46:57;11.00;;;4.77;;
18526;SDS011;9393;42.158;24.748;2022-12-13T06:50:13;8.23;;;5.20;;
18526;SDS011;9393;42.158;24.748;2022-12-13T06:53:17;8.30;;;4.80;;
18526;SDS011;9393;42.158;24.748;2022-12-13T06:56:23;8.73;;;5.07;;
18526;SDS011;9393;42.158;24.748;2022-12-13T06:59:26;11.70;;;6.43;;
18526;SDS011;9393;42.158;24.748;2022-12-13T07:02:30;10.03;;;5.33;;
18526;SDS011;9393;42.158;24.748;2022-12-13T07:05:36;9.30;;;4.87;;
18526;SDS011;9393;42.158;24.748;2022-12-13T07:08:47;8.30;;;4.47;;
18526;SDS011;9393;42.158;24.748;2022-12-13T07:11:54;9.97;;;4.53;;
18526;SDS011;9393;42.158;24.748;2022-12-13T07:14:58;10.47;;;5.60;;
18526;SDS011;9393;42.158;24.748;2022-12-13T07:18:02;9.03;;;5.07;;
18526;SDS011;9393;42.158;24.748;2022-12-13T07:21:06;8.60;;;5.37;;
18526;SDS011;9393;42.158;24.748;2022-12-13T07:24:23;10.13;;;5.33;;
18526;SDS011;9393;42.158;24.748;2022-12-13T07:27:28;6.67;;;3.87;;
18526;SDS011;9393;42.158;24.748;2022-12-13T07:30:32;8.97;;;5.33;;
18526;SDS011;9393;42.158;24.748;2022-12-13T07:33:42;7.30;;;4.53;;
18526;SDS011;9393;42.158;24.748;2022-12-13T07:36:48;9.03;;;4.90;;
18526;SDS011;9393;42.158;24.748;2022-12-13T07:39:52;8.47;;;3.70;;
18526;SDS011;9393;42.158;24.748;2022-12-13T07:43:05;11.50;;;5.27;;
18526;SDS011;9393;42.158;24.748;2022-12-13T07:46:09;6.20;;;4.50;;
18526;SDS011;9393;42.158;24.748;2022-12-13T07:49:13;11.90;;;5.43;;
18526;SDS011;9393;42.158;24.748;2022-12-13T07:52:17;7.80;;;4.13;;
18526;SDS011;9393;42.158;24.748;2022-12-13T07:55:21;8.13;;;4.80;;
18526;SDS011;9393;42.158;24.748;2022-12-13T07:58:37;9.80;;;5.63;;
18526;SDS011;9393;42.158;24.748;2022-12-13T08:01:43;5.73;;;3.80;;
18526;SDS011;9393;42.158;24.748;2022-12-13T08:04:47;8.70;;;5.27;;
18526;SDS011;9393;42.158;24.748;2022-12-13T08:07:55;8.13;;;4.60;;
18526;SDS011;9393;42.158;24.748;2022-12-13T08:11:00;8.37;;;5.00;;
18526;SDS011;9393;42.158;24.748;2022-12-13T08:14:06;10.53;;;4.70;;
18526;SDS011;9393;42.158;24.748;2022-12-13T08:17:10;8.77;;;5.03;;
18526;SDS011;9393;42.158;24.748;2022-12-13T08:20:15;10.67;;;3.30;;
18526;SDS011;9393;42.158;24.748;2022-12-13T08:23:23;6.33;;;3.70;;
18526;SDS011;9393;42.158;24.748;2022-12-13T08:26:27;6.67;;;3.77;;
18526;SDS011;9393;42.158;24.748;2022-12-13T08:29:33;8.23;;;4.00;;
18526;SDS011;9393;42.158;24.748;2022-12-13T08:32:37;8.47;;;4.90;;
18526;SDS011;9393;42.158;24.748;2022-12-13T08:35:41;5.47;;;3.17;;
18526;SDS011;9393;42.158;24.748;2022-12-13T08:38:46;9.63;;;5.93;;
18526;SDS011;9393;42.158;24.748;2022-12-13T08:41:50;8.43;;;4.83;;
18526;SDS011;9393;42.158;24.748;2022-12-13T08:44:55;10.33;;;4.03;;
18526;SDS011;9393;42.158;24.748;2022-12-13T08:47:59;11.17;;;5.67;;
18526;SDS011;9393;42.158;24.748;2022-12-13T08:51:04;8.03;;;5.17;;
18526;SDS011;9393;42.158;24.748;2022-12-13T08:54:10;7.90;;;4.10;;
18526;SDS011;9393;42.158;24.748;2022-12-13T08:57:34;9.17;;;4.90;;
18526;SDS011;9393;42.158;24.748;2022-12-13T09:00:39;9.83;;;5.70;;
18526;SDS011;9393;42.158;24.748;2022-12-13T09:03:44;9.87;;;5.53;;
18526;SDS011;9393;42.158;24.748;2022-12-13T09:06:48;9.10;;;4.77;;
18526;SDS011;9393;42.158;24.748;2022-12-13T09:09:51;10.17;;;5.80;;
18526;SDS011;9393;42.158;24.748;2022-12-13T09:12:56;10.33;;;5.63;;
18526;SDS011;9393;42.158;24.748;2022-12-13T09:16:04;8.43;;;4.50;;
18526;SDS011;9393;42.158;24.748;2022-12-13T09:19:23;9.47;;;5.03;;
18526;SDS011;9393;42.158;24.748;2022-12-13T09:22:27;12.50;;;6.23;;
18526;SDS011;9393;42.158;24.748;2022-12-13T09:25:35;11.97;;;6.13;;
18526;SDS011;9393;42.158;24.748;2022-12-13T09:28:39;14.07;;;6.47;;
18526;SDS011;9393;42.158;24.748;2022-12-13T09:31:45;10.60;;;6.30;;
18526;SDS011;9393;42.158;24.748;2022-12-13T09:34:54;13.53;;;6.20;;
18526;SDS011;9393;42.158;24.748;2022-12-13T09:37:58;14.23;;;5.13;;
18526;SDS011;9393;42.158;24.748;2022-12-13T09:41:02;12.23;;;5.07;;
18526;SDS011;9393;42.158;24.748;2022-12-13T09:44:20;11.20;;;5.20;;
18526;SDS011;9393;42.158;24.748;2022-12-13T09:47:36;10.33;;;5.43;;
18526;SDS011;9393;42.158;24.748;2022-12-13T09:50:48;10.77;;;5.93;;
18526;SDS011;9393;42.158;24.748;2022-12-13T09:54:15;9.30;;;5.37;;
18526;SDS011;9393;42.158;24.748;2022-12-13T09:57:22;9.17;;;5.77;;
18526;SDS011;9393;42.158;24.748;2022-12-13T10:00:33;7.13;;;4.23;;
18526;SDS011;9393;42.158;24.748;2022-12-13T10:03:40;8.60;;;5.87;;
18526;SDS011;9393;42.158;24.748;2022-12-13T10:06:50;10.60;;;5.63;;
18526;SDS011;9393;42.158;24.748;2022-12-13T10:09:57;10.20;;;5.40;;
18526;SDS011;9393;42.158;24.748;2022-12-13T10:13:07;5.87;;;3.53;;
18526;SDS011;9393;42.158;24.748;2022-12-13T10:16:17;9.83;;;5.33;;
18526;SDS011;9393;42.158;24.748;2022-12-13T10:19:39;14.37;;;5.73;;
18526;SDS011;9393;42.158;24.748;2022-12-13T10:22:45;13.33;;;6.40;;
18526;SDS011;9393;42.158;24.748;2022-12-13T10:26:10;11.23;;;6.70;;
18526;SDS011;9393;42.158;24.748;2022-12-13T10:29:25;11.73;;;6.77;;
18526;SDS011;9393;42.158;24.748;2022-12-13T10:32:31;9.93;;;6.17;;
18526;SDS011;9393;42.158;24.748;2022-12-13T10:35:40;8.73;;;5.97;;
18526;SDS011;9393;42.158;24.748;2022-12-13T10:38:44;10.80;;;6.10;;
18526;SDS011;9393;42.158;24.748;2022-12-13T10:41:48;13.07;;;6.00;;
18526;SDS011;9393;42.158;24.748;2022-12-13T10:45:12;11.87;;;5.67;;
18526;SDS011;9393;42.158;24.748;2022-12-13T10:48:26;11.80;;;6.60;;
18526;SDS011;9393;42.158;24.748;2022-12-13T10:51:41;7.80;;;5.40;;
18526;SDS011;9393;42.158;24.748;2022-12-13T10:54:45;9.37;;;5.87;;
18526;SDS011;9393;42.158;24.748;2022-12-13T10:57:52;9.43;;;6.10;;
18526;SDS011;9393;42.158;24.748;2022-12-13T11:00:58;8.87;;;5.90;;
18526;SDS011;9393;42.158;24.748;2022-12-13T11:04:19;10.63;;;5.97;;
18526;SDS011;9393;42.158;24.748;2022-12-13T11:07:30;9.17;;;5.40;;
18526;SDS011;9393;42.158;24.748;2022-12-13T11:10:35;10.17;;;5.07;;
18526;SDS011;9393;42.158;24.748;2022-12-13T11:13:40;12.10;;;5.07;;
18526;SDS011;9393;42.158;24.748;2022-12-13T11:16:48;7.83;;;5.50;;
18526;SDS011;9393;42.158;24.748;2022-12-13T11:19:54;7.30;;;4.97;;
18526;SDS011;9393;42.158;24.748;2022-12-13T11:23:02;8.77;;;5.40;;
18526;SDS011;9393;42.158;24.748;2022-12-13T11:26:10;9.70;;;5.63;;
18526;SDS011;9393;42.158;24.748;2022-12-13T11:29:38;9.97;;;5.87;;
18526;SDS011;9393;42.158;24.748;2022-12-13T11:32:58;9.67;;;4.60;;
18526;SDS011;9393;42.158;24.748;2022-12-13T11:36:19;9.20;;;4.50;;
18526;SDS011;9393;42.158;24.748;2022-12-13T11:39:35;8.70;;;4.70;;
18526;SDS011;9393;42.158;24.748;2022-12-13T11:42:44;9.73;;;4.40;;
18526;SDS011;9393;42.158;24.748;2022-12-13T11:45:54;6.87;;;4.93;;
18526;SDS011;9393;42.158;24.748;2022-12-13T11:49:03;9.23;;;5.40;;
18526;SDS011;9393;42.158;24.748;2022-12-13T11:52:13;12.17;;;5.17;;
18526;SDS011;9393;42.158;24.748;2022-12-13T11:55:24;9.43;;;4.97;;
18526;SDS011;9393;42.158;24.748;2022-12-13T11:58:40;9.17;;;5.80;;
18526;SDS011;9393;42.158;24.748;2022-12-13T12:02:05;10.43;;;5.73;;
18526;SDS011;9393;42.158;24.748;2022-12-13T12:05:21;8.53;;;5.67;;
18526;SDS011;9393;42.158;24.748;2022-12-13T12:08:32;8.63;;;5.40;;
18526;SDS011;9393;42.158;24.748;2022-12-13T12:11:44;9.80;;;5.10;;
18526;SDS011;9393;42.158;24.748;2022-12-13T12:14:55;7.80;;;4.70;;
18526;SDS011;9393;42.158;24.748;2022-12-13T12:18:16;10.00;;;6.60;;
18526;SDS011;9393;42.158;24.748;2022-12-13T12:21:23;12.87;;;6.83;;
18526;SDS011;9393;42.158;24.748;2022-12-13T12:25:00;11.60;;;6.50;;
18526;SDS011;9393;42.158;24.748;2022-12-13T12:28:20;12.30;;;6.43;;
18526;SDS011;9393;42.158;24.748;2022-12-13T12:31:36;10.47;;;6.70;;
18526;SDS011;9393;42.158;24.748;2022-12-13T12:34:53;8.20;;;5.07;;
18526;SDS011;9393;42.158;24.748;2022-12-13T12:38:11;8.50;;;6.33;;
18526;SDS011;9393;42.158;24.748;2022-12-13T12:41:31;10.83;;;5.87;;
18526;SDS011;9393;42.158;24.748;2022-12-13T12:44:51;10.07;;;6.50;;
18526;SDS011;9393;42.158;24.748;2022-12-13T12:48:09;8.67;;;5.23;;
18526;SDS011;9393;42.158;24.748;2022-12-13T12:51:45;9.90;;;6.03;;
18526;SDS011;9393;42.158;24.748;2022-12-13T12:54:59;9.63;;;5.83;;
18526;SDS011;9393;42.158;24.748;2022-12-13T12:58:15;8.77;;;5.67;;
18526;SDS011;9393;42.158;24.748;2022-12-13T13:01:30;11.80;;;6.00;;
18526;SDS011;9393;42.158;24.748;2022-12-13T13:04:49;11.17;;;6.80;;
18526;SDS011;9393;42.158;24.748;2022-12-13T13:07:58;9.07;;;5.90;;
18526;SDS011;9393;42.158;24.748;2022-12-13T13:11:07;8.60;;;5.47;;
18526;SDS011;9393;42.158;24.748;2022-12-13T13:14:31;9.63;;;6.30;;
18526;SDS011;9393;42.158;24.748;2022-12-13T13:17:45;10.73;;;6.70;;
18526;SDS011;9393;42.158;24.748;2022-12-13T13:20:55;12.23;;;6.20;;
18526;SDS011;9393;42.158;24.748;2022-12-13T13:24:34;11.67;;;6.47;;
18526;SDS011;9393;42.158;24.748;2022-12-13T13:27:39;9.93;;;6.23;;
18526;SDS011;9393;42.158;24.748;2022-12-13T13:31:00;14.17;;;7.40;;
18526;SDS011;9393;42.158;24.748;2022-12-13T13:34:20;10.40;;;6.50;;
18526;SDS011;9393;42.158;24.748;2022-12-13T13:37:27;11.80;;;7.13;;
18526;SDS011;9393;42.158;24.748;2022-12-13T13:40:48;12.00;;;7.17;;
18526;SDS011;9393;42.158;24.748;2022-12-13T13:43:52;12.00;;;7.20;;
18526;SDS011;9393;42.158;24.748;2022-12-13T13:47:10;13.20;;;7.00;;
18526;SDS011;9393;42.158;24.748;2022-12-13T13:50:25;13.13;;;7.30;;
18526;SDS011;9393;42.158;24.748;2022-12-13T13:58:06;10.87;;;6.63;;
18526;SDS011;9393;42.158;24.748;2022-12-13T14:01:49;10.80;;;6.33;;
18526;SDS011;9393;42.158;24.748;2022-12-13T14:05:30;12.67;;;6.10;;
18526;SDS011;9393;42.158;24.748;2022-12-13T14:09:04;10.37;;;5.93;;
18526;SDS011;9393;42.158;24.748;2022-12-13T14:20:21;9.83;;;6.47;;
18526;SDS011;9393;42.158;24.748;2022-12-13T14:23:49;13.00;;;7.00;;
18526;SDS011;9393;42.158;24.748;2022-12-13T14:27:11;11.83;;;7.63;;
18526;SDS011;9393;42.158;24.748;2022-12-13T14:30:22;14.73;;;8.10;;
18526;SDS011;9393;42.158;24.748;2022-12-13T14:33:30;11.93;;;7.90;;
18526;SDS011;9393;42.158;24.748;2022-12-13T14:36:35;13.23;;;7.10;;
18526;SDS011;9393;42.158;24.748;2022-12-13T14:39:42;12.23;;;7.23;;
18526;SDS011;9393;42.158;24.748;2022-12-13T14:42:49;13.30;;;8.00;;
18526;SDS011;9393;42.158;24.748;2022-12-13T14:45:56;13.20;;;7.90;;
18526;SDS011;9393;42.158;24.748;2022-12-13T14:49:01;15.37;;;8.83;;
18526;SDS011;9393;42.158;24.748;2022-12-13T14:52:15;11.77;;;7.67;;
18526;SDS011;9393;42.158;24.748;2022-12-13T14:55:28;17.60;;;9.70;;
18526;SDS011;9393;42.158;24.748;2022-12-13T14:58:34;17.27;;;10.33;;
18526;SDS011;9393;42.158;24.748;2022-12-13T15:01:39;19.17;;;11.63;;
18526;SDS011;9393;42.158;24.748;2022-12-13T15:04:45;21.57;;;12.17;;
18526;SDS011;9393;42.158;24.748;2022-12-13T15:07:50;20.53;;;11.83;;
18526;SDS011;9393;42.158;24.748;2022-12-13T15:10:55;21.83;;;12.07;;
18526;SDS011;9393;42.158;24.748;2022-12-13T15:14:10;22.00;;;12.77;;
18526;SDS011;9393;42.158;24.748;2022-12-13T15:17:22;24.90;;;12.80;;
18526;SDS011;9393;42.158;24.748;2022-12-13T15:20:30;21.67;;;11.93;;
18526;SDS011;9393;42.158;24.748;2022-12-13T15:23:41;24.17;;;15.27;;
18526;SDS011;9393;42.158;24.748;2022-12-13T15:26:54;30.13;;;18.93;;
18526;SDS011;9393;42.158;24.748;2022-12-13T15:29:59;22.83;;;12.47;;
18526;SDS011;9393;42.158;24.748;2022-12-13T15:33:05;24.03;;;12.97;;
18526;SDS011;9393;42.158;24.748;2022-12-13T15:36:12;24.63;;;13.10;;
18526;SDS011;9393;42.158;24.748;2022-12-13T15:39:20;62.63;;;25.27;;
18526;SDS011;9393;42.158;24.748;2022-12-13T15:42:28;38.60;;;17.40;;
18526;SDS011;9393;42.158;24.748;2022-12-13T15:45:34;38.63;;;21.87;;
18526;SDS011;9393;42.158;24.748;2022-12-13T15:48:39;73.40;;;36.20;;
18526;SDS011;9393;42.158;24.748;2022-12-13T15:51:53;176.03;;;84.67;;
18526;SDS011;9393;42.158;24.748;2022-12-13T15:55:00;75.27;;;38.30;;
18526;SDS011;9393;42.158;24.748;2022-12-13T15:58:30;24.93;;;14.30;;
18526;SDS011;9393;42.158;24.748;2022-12-13T16:01:36;24.67;;;13.37;;
18526;SDS011;9393;42.158;24.748;2022-12-13T16:04:40;17.63;;;11.40;;
18526;SDS011;9393;42.158;24.748;2022-12-13T16:07:47;37.73;;;16.67;;
18526;SDS011;9393;42.158;24.748;2022-12-13T16:10:58;15.17;;;9.30;;
18526;SDS011;9393;42.158;24.748;2022-12-13T16:14:23;22.57;;;10.07;;
18526;SDS011;9393;42.158;24.748;2022-12-13T16:17:30;33.47;;;18.30;;
18526;SDS011;9393;42.158;24.748;2022-12-13T16:20:35;42.33;;;24.17;;
18526;SDS011;9393;42.158;24.748;2022-12-13T16:23:39;44.93;;;24.57;;
18526;SDS011;9393;42.158;24.748;2022-12-13T16:26:51;44.00;;;26.30;;
18526;SDS011;9393;42.158;24.748;2022-12-13T16:29:55;57.77;;;33.50;;
18526;SDS011;9393;42.158;24.748;2022-12-13T16:32:59;37.37;;;16.03;;
18526;SDS011;9393;42.158;24.748;2022-12-13T16:36:22;42.10;;;20.43;;
18526;SDS011;9393;42.158;24.748;2022-12-13T16:39:26;58.60;;;27.77;;
18526;SDS011;9393;42.158;24.748;2022-12-13T16:42:32;36.47;;;20.13;;
18526;SDS011;9393;42.158;24.748;2022-12-13T16:45:37;33.03;;;14.63;;
18526;SDS011;9393;42.158;24.748;2022-12-13T16:48:43;31.53;;;18.17;;
18526;SDS011;9393;42.158;24.748;2022-12-13T16:51:47;30.67;;;13.87;;
18526;SDS011;9393;42.158;24.748;2022-12-13T16:54:51;24.67;;;13.57;;
18526;SDS011;9393;42.158;24.748;2022-12-13T16:57:57;35.13;;;19.50;;
18526;SDS011;9393;42.158;24.748;2022-12-13T17:01:06;27.57;;;14.60;;
18526;SDS011;9393;42.158;24.748;2022-12-13T17:04:12;25.07;;;14.50;;
18526;SDS011;9393;42.158;24.748;2022-12-13T17:07:22;34.43;;;20.47;;
18526;SDS011;9393;42.158;24.748;2022-12-13T17:10:25;27.57;;;17.87;;
18526;SDS011;9393;42.158;24.748;2022-12-13T17:13:31;33.67;;;17.93;;
18526;SDS011;9393;42.158;24.748;2022-12-13T17:16:35;36.60;;;17.67;;
18526;SDS011;9393;42.158;24.748;2022-12-13T17:19:39;33.53;;;19.63;;
18526;SDS011;9393;42.158;24.748;2022-12-13T17:22:43;34.30;;;21.03;;
18526;SDS011;9393;42.158;24.748;2022-12-13T17:25:48;42.27;;;23.37;;
18526;SDS011;9393;42.158;24.748;2022-12-13T17:29:00;42.13;;;24.60;;
18526;SDS011;9393;42.158;24.748;2022-12-13T17:32:05;45.63;;;25.27;;
18526;SDS011;9393;42.158;24.748;2022-12-13T17:35:09;54.30;;;24.77;;
18526;SDS011;9393;42.158;24.748;2022-12-13T17:38:19;36.67;;;21.80;;
18526;SDS011;9393;42.158;24.748;2022-12-13T17:41:22;42.20;;;21.43;;
18526;SDS011;9393;42.158;24.748;2022-12-13T17:44:28;38.53;;;20.87;;
18526;SDS011;9393;42.158;24.748;2022-12-13T17:47:32;41.17;;;21.33;;
18526;SDS011;9393;42.158;24.748;2022-12-13T17:50:36;34.77;;;19.47;;
18526;SDS011;9393;42.158;24.748;2022-12-13T17:53:41;37.37;;;19.90;;
18526;SDS011;9393;42.158;24.748;2022-12-13T17:56:46;33.53;;;18.83;;
18526;SDS011;9393;42.158;24.748;2022-12-13T17:59:51;33.80;;;17.77;;
18526;SDS011;9393;42.158;24.748;2022-12-13T18:02:55;27.73;;;16.73;;
18526;SDS011;9393;42.158;24.748;2022-12-13T18:05:59;32.20;;;17.97;;
18526;SDS011;9393;42.158;24.748;2022-12-13T18:09:03;36.87;;;18.97;;
18526;SDS011;9393;42.158;24.748;2022-12-13T18:12:07;34.03;;;18.67;;
18526;SDS011;9393;42.158;24.748;2022-12-13T18:15:12;33.80;;;18.30;;
18526;SDS011;9393;42.158;24.748;2022-12-13T18:18:16;33.07;;;19.40;;
18526;SDS011;9393;42.158;24.748;2022-12-13T18:21:22;39.40;;;21.63;;
18526;SDS011;9393;42.158;24.748;2022-12-13T18:24:28;49.00;;;25.67;;
18526;SDS011;9393;42.158;24.748;2022-12-13T18:27:32;42.23;;;22.83;;
18526;SDS011;9393;42.158;24.748;2022-12-13T18:30:38;43.77;;;22.63;;
18526;SDS011;9393;42.158;24.748;2022-12-13T18:33:42;34.00;;;20.50;;
18526;SDS011;9393;42.158;24.748;2022-12-13T18:36:48;28.20;;;16.53;;
18526;SDS011;9393;42.158;24.748;2022-12-13T18:39:52;34.10;;;20.00;;
18526;SDS011;9393;42.158;24.748;2022-12-13T18:42:56;32.77;;;18.63;;
18526;SDS011;9393;42.158;24.748;2022-12-13T18:46:02;30.80;;;18.77;;
18526;SDS011;9393;42.158;24.748;2022-12-13T18:49:08;32.90;;;18.80;;
18526;SDS011;9393;42.158;24.748;2022-12-13T18:52:12;34.93;;;18.43;;
18526;SDS011;9393;42.158;24.748;2022-12-13T18:55:16;32.00;;;18.37;;
18526;SDS011;9393;42.158;24.748;2022-12-13T18:58:20;33.63;;;17.47;;